Nearby METAR Reports

 

KDPA - Chicago/Dupage, Illinois, USA
Distance from station: NW 11mi, 18km
Updated: Wed, 08-Dec-2021 3:52pm CST
Clear
Clear
 Wind from NNW
Wind: NNW 8 mph , 13 km/h
Temperature: 30°F , -1°C
Wind Chill: 22°F , -6°C
Dew Point: 18°F , -8°C
Humidity: 59%
Barometer: 30.02 inHg , 1016.6 hPa
Clouds: Clear
Visibility: 10 miles , 16 km
2021/12/08 21:52 KDPA 082152Z 33007KT 10SM CLR M01/M08 A3002 RMK AO2 SLP174 T10061083
KLOT - Romeoville/Chi, Illinois, USA
Distance from station: S 13mi, 21km
Updated: Wed, 08-Dec-2021 4:15pm CST
Clear
Clear
 Wind from WSW
Wind: WSW 7 mph , 11 km/h
Temperature: 30°F , -1°C
Wind Chill: 23°F , -5°C
Dew Point: 21°F , -6°C
Humidity: 69%
Barometer: 30.05 inHg , 1017.6 hPa
Clouds: Clear
Visibility: 10 miles , 16 km
2021/12/08 22:15 KLOT 082215Z AUTO 25006KT 10SM CLR M01/M06 A3005 RMK AO2 T10101065
 
KORD - Chicago O'Hare, Illinois, USA
Distance from station: NE 17mi, 27km
Updated: Wed, 08-Dec-2021 3:51pm CST
Few Clouds
Few Clouds
 Wind from WNW
Wind: WNW 9 mph , 15 km/h
Temperature: 34°F , 1°C
Wind Chill: 27°F , -3°C
Dew Point: 18°F , -8°C
Humidity: 51%
Barometer: 30.02 inHg , 1016.6 hPa
Clouds: Few Clouds
Visibility: 10 miles , 16 km
Cloud details: Few Clouds 3500 ft
Few Clouds 20000 ft
2021/12/08 21:51 KORD 082151Z 30008KT 10SM FEW035 FEW200 01/M08 A3002 RMK AO2 SLP173 T00061078
KARR - Chicago/Aurora, Illinois, USA
Distance from station: W 19mi, 30km
Updated: Wed, 08-Dec-2021 3:52pm CST
Clear
Clear
 Wind from NW
Wind: NW 6 mph , 9 km/h
Temperature: 30°F , -1°C
Wind Chill: 24°F , -4°C
Dew Point: 18°F , -8°C
Humidity: 59%
Barometer: 30.01 inHg , 1016.3 hPa
Clouds: Clear
Visibility: 9 miles , 14 km
2021/12/08 21:52 KARR 082152Z 31005KT 9SM CLR M01/M08 A3001 RMK AO2 SLP172 T10061078
 
KJOT - Joliet, Illinois, USA
Distance from station: S 19mi, 31km
Updated: Wed, 08-Dec-2021 4:35pm CST
Clear
Clear
 Wind from N
Wind: N 5 mph , 7 km/h
Temperature: 32°F , 0°C
Wind Chill: 27°F , -3°C
Dew Point: 19°F , -7°C
Humidity: 60%
Barometer: 30.03 inHg , 1016.9 hPa
Clouds: Clear
Visibility: 10 miles , 16 km
2021/12/08 22:35 KJOT 082235Z AUTO 35004KT 10SM CLR 00/M07 A3003 RMK AO2 T10021070
KMDW - Chicago, Illinois, USA
Distance from station: E 19mi, 31km
Updated: Wed, 08-Dec-2021 3:53pm CST
Partly cloudy
Partly cloudy
 Wind from NNW
Wind: NNW 6 mph , 9 km/h
Temperature: 34°F , 1°C
Wind Chill: 29°F , -2°C
Dew Point: 16°F , -9°C
Humidity: 48%
Barometer: 30.03 inHg , 1016.9 hPa
Clouds: Partly cloudy
Visibility: 10 miles , 16 km
Cloud details: Few Clouds 3600 ft
Partly cloudy 18000 ft
Partly cloudy 25000 ft
2021/12/08 21:53 KMDW 082153Z 33005KT 10SM FEW036 SCT180 SCT250 01/M09 A3003 RMK AO2 SLP180 T00111089
 
KPWK - Palwaukee, Illinois, USA
Distance from station: NNE 25mi, 41km
Updated: Wed, 08-Dec-2021 3:52pm CST
Clear
Clear
 Wind from NW
Wind: NW 8 mph , 13 km/h
Temperature: 34°F , 1°C
Wind Chill: 27°F , -3°C
Dew Point: 18°F , -8°C
Humidity: 51%
Barometer: 30.04 inHg , 1017.3 hPa
Clouds: Clear
Visibility: 10 miles , 16 km
2021/12/08 21:52 KPWK 082152Z 32007KT 10SM CLR 01/M08 A3004 RMK AO2 SLP180 T00061083
KC09 - Morris-Washburn, Illinois, USA
Distance from station: SSW 29mi, 47km
Updated: Wed, 08-Dec-2021 4:35pm CST
Clear
Clear
 Wind from NNW
Wind: NNW 3 mph , 6 km/h
Temperature: 30°F , -1°C
Dew Point: 19°F , -7°C
Humidity: 64%
Barometer: 30.03 inHg , 1016.9 hPa
Clouds: Clear
Visibility: 10 miles , 16 km
2021/12/08 22:35 KC09 082235Z AUTO 33003KT 10SM CLR M01/M07 A3003 RMK AO2 T10091068
 
KDKB - De Kalb, Illinois, USA
Distance from station: WNW 31mi, 50km
Updated: Wed, 08-Dec-2021 4:35pm CST
Clear
Clear
 Wind from NNW
Wind: NNW 3 mph , 6 km/h
Temperature: 27°F , -3°C
Dew Point: 16°F , -9°C
Humidity: 64%
Barometer: 30.02 inHg , 1016.6 hPa
Clouds: Clear
Visibility: 10 miles , 16 km
2021/12/08 22:35 KDKB 082235Z AUTO 34003KT 10SM CLR M03/M09 A3002 RMK AO2 T10271090
KIGQ - Chicago/Lansing, Illinois, USA
Distance from station: ESE 35mi, 57km
Updated: Wed, 08-Dec-2021 4:35pm CST
Mostly cloudy
Mostly cloudy
 Wind from NE
Wind: NE 3 mph , 6 km/h
Temperature: 30°F , -1°C
Dew Point: 21°F , -6°C
Humidity: 69%
Barometer: 30.05 inHg , 1017.6 hPa
Clouds: Mostly cloudy
Visibility: 10 miles , 16 km
Cloud details: Mostly cloudy 3700 ft
2021/12/08 22:35 KIGQ 082235Z AUTO 04003KT 10SM BKN037 M01/M06 A3005 RMK AO2 T10071060
 
KGYY - Gary Regional, Indiana, USA
Distance from station: ESE 38mi, 62km
Updated: Wed, 08-Dec-2021 3:45pm CST
Clear
Clear
 Wind from calm
Wind: Calm
Temperature: 32°F , 0°C
Dew Point: 21°F , -6°C
Humidity: 64%
Barometer: 30.04 inHg , 1017.3 hPa
Clouds: Clear
Visibility: 10 miles , 16 km
2021/12/08 21:45 KGYY 082145Z 00000KT 10SM CLR M00/M06 A3004
KUGN - Waukegan, Illinois, USA
Distance from station: NNE 45mi, 73km
Updated: Wed, 08-Dec-2021 3:55pm CST
Clear
Clear
 Wind from calm
Wind: Calm
Temperature: 30°F , -1°C
Dew Point: 18°F , -8°C
Humidity: 59%
Barometer: 30.03 inHg , 1016.9 hPa
Clouds: Clear
Visibility: 10 miles , 16 km
2021/12/08 21:55 KUGN 082155Z 00000KT 10SM CLR M01/M08 A3003 RMK AO2 SLP184 T10111083
 
KRPJ - Rochelle/Koritz, Illinois, USA
Distance from station: W 50mi, 80km
Updated: Wed, 08-Dec-2021 4:10pm CST
Clear
Clear
 Wind from N
Wind: N 5 mph , 7 km/h
Temperature: 30°F , -1°C
Wind Chill: 25°F , -4°C
Dew Point: 16°F , -9°C
Humidity: 55%
Barometer: 30.03 inHg , 1016.9 hPa
Clouds: Clear
Visibility: 10 miles , 16 km
2021/12/08 22:10 KRPJ 082210Z AUTO 35004KT 10SM CLR M01/M09 A3003 RMK AO2 T10141089